• Join FlightAware (Why Join?)
  • Login
  • US Flag 
07:34PM EST


 

Airport Tracker/Info


-or-


 

Live Flight TrackerFlight Track Log ✈ ANT207 ✈ 24-Jun-2013 ✈ CYDA - CYEV

Flight Track Log - Related Links

Times and Time Zones

All times are in EDT time to prevent confusion due to time zone crossing. See the ANT207 flight status page for this flight to view local times or setup timezone preferences in your user account.

Time Position Orientation Groundspeed Altitude Reporting Facility
EDT Latitude Longitude Course Direction KTS MPH feet Rate Location/Type
12:27PM 64.6506 -138.4333 26° Northeast  Level FlightAware Approximate
12:28PM 64.7018 -138.3746 26° Northeast  Level FlightAware Approximate
12:29PM 64.7530 -138.3157 26° Northeast  Level FlightAware Approximate
12:30PM 64.8041 -138.2563 26° Northeast  Level FlightAware Approximate
12:31PM 64.8552 -138.1965 26° Northeast  Level FlightAware Approximate
12:32PM 64.9063 -138.1364 26° Northeast  Level FlightAware Approximate
12:33PM 64.9573 -138.0762 27° Northeast  Level FlightAware Approximate
12:34PM 65.0083 -138.0157 27° Northeast  Level FlightAware Approximate
12:35PM 65.0593 -137.9550 27° Northeast  Level FlightAware Approximate
12:36PM 65.1102 -137.8940 27° Northeast  Level FlightAware Approximate
12:37PM 65.1611 -137.8329 27° Northeast  Level FlightAware Approximate
12:38PM 65.2121 -137.7715 27° Northeast  Level FlightAware Approximate
12:39PM 65.2629 -137.7098 27° Northeast  Level FlightAware Approximate
12:40PM 65.3138 -137.6479 27° Northeast  Level FlightAware Approximate
12:41PM 65.3646 -137.5858 27° Northeast  Level FlightAware Approximate
12:42PM 65.4154 -137.5234 27° Northeast  Level FlightAware Approximate
12:43PM 65.4662 -137.4608 27° Northeast  Level FlightAware Approximate
12:44PM 65.5169 -137.3979 27° Northeast  Level FlightAware Approximate
12:45PM 65.5677 -137.3348 27° Northeast  Level FlightAware Approximate
12:46PM 65.6184 -137.2715 27° Northeast  Level FlightAware Approximate
12:47PM 65.6690 -137.2079 27° Northeast  Level FlightAware Approximate
12:48PM 65.7197 -137.1440 27° Northeast  Level FlightAware Approximate
12:49PM 65.7703 -137.0799 27° Northeast  Level FlightAware Approximate
12:50PM 65.8209 -137.0156 28° Northeast  Level FlightAware Approximate
12:51PM 65.8714 -136.9510 28° Northeast  Level FlightAware Approximate
12:52PM 65.9220 -136.8861 28° Northeast  Level FlightAware Approximate
12:53PM 65.9725 -136.8210 28° Northeast  Level FlightAware Approximate
12:54PM 66.0230 -136.7556 28° Northeast  Level FlightAware Approximate
12:55PM 66.0734 -136.6900 28° Northeast  Level FlightAware Approximate
12:56PM 66.1238 -136.6241 28° Northeast  Level FlightAware Approximate
12:57PM 66.1742 -136.5580 28° Northeast  Level FlightAware Approximate
12:58PM 66.2246 -136.4915 28° Northeast  Level FlightAware Approximate
12:59PM 66.2749 -136.4249 28° Northeast  Level FlightAware Approximate
01:00PM 66.3253 -136.3579 28° Northeast  Level FlightAware Approximate
01:01PM 66.3755 -136.2907 28° Northeast  Level FlightAware Approximate
01:02PM 66.4258 -136.2232 28° Northeast  Level FlightAware Approximate
01:03PM 66.4760 -136.1554 28° Northeast  Level FlightAware Approximate
01:04PM 66.5262 -136.0874 28° Northeast  Level FlightAware Approximate
01:05PM 66.5764 -136.0191 28° Northeast  Level FlightAware Approximate
01:06PM 66.6265 -135.9505 28° Northeast  Level FlightAware Approximate
01:07PM 66.6766 -135.8816 29° Northeast  Level FlightAware Approximate
01:08PM 66.7267 -135.8125 29° Northeast  Level FlightAware Approximate
01:09PM 66.7767 -135.7430 29° Northeast  Level FlightAware Approximate
01:10PM 66.8267 -135.6733 29° Northeast  Level FlightAware Approximate
01:11PM 66.8767 -135.6033 29° Northeast  Level FlightAware Approximate
01:12PM 66.9267 -135.5331 29° Northeast  Level FlightAware Approximate
01:13PM 66.9766 -135.4625 29° Northeast  Level FlightAware Approximate
01:14PM 67.0265 -135.3916 29° Northeast  Level FlightAware Approximate
01:15PM 67.0763 -135.3205 29° Northeast  Level FlightAware Approximate
01:16PM 67.1262 -135.2491 29° Northeast  Level FlightAware Approximate
01:17PM 67.1760 -135.1773 29° Northeast  Level FlightAware Approximate
01:18PM 67.2263 -135.1079 28° Northeast  Level FlightAware Approximate
01:19PM 67.2767 -135.0386 28° Northeast  Level FlightAware Approximate
01:20PM 67.3269 -134.9683 30° Northeast  Level FlightAware Approximate
01:21PM 67.3764 -134.8948 30° Northeast  Level FlightAware Approximate
01:22PM 67.4259 -134.8210 30° Northeast  Level FlightAware Approximate
01:23PM 67.4754 -134.7469 30° Northeast  Level FlightAware Approximate
01:24PM 67.5248 -134.6725 30° Northeast  Level FlightAware Approximate
01:25PM 67.5742 -134.5978 30° Northeast  Level FlightAware Approximate
01:26PM 67.6237 -134.5232 29° Northeast  Level FlightAware Approximate
01:27PM 67.6738 -134.4512 29° Northeast  Level FlightAware Approximate
01:28PM 67.7238 -134.3789 29° Northeast  Level FlightAware Approximate
01:29PM 67.7736 -134.3054 32° Northeast  Level FlightAware Approximate
01:30PM 67.8222 -134.2264 32° Northeast  Level FlightAware Approximate
01:31PM 67.8708 -134.1470 32° Northeast  Level FlightAware Approximate
01:32PM 67.9193 -134.0673 32° Northeast  Level FlightAware Approximate
01:33PM 67.9690 -133.9930 25° Northeast  Level FlightAware Approximate
01:34PM 68.0204 -133.9273 31° Northeast  Level FlightAware Approximate
01:35PM 68.0694 -133.8491 31° Northeast  Level FlightAware Approximate
01:36PM 68.1180 -133.7687 33° Northeast  Level FlightAware Approximate
01:37PM 68.1657 -133.6850 33° Northeast  Level FlightAware Approximate
01:38PM 68.2136 -133.6013 33° Northeast  Level FlightAware Approximate
01:39PM 68.2626 -133.5228 29° Northeast  Level FlightAware Approximate
01:40PM 68.3000 -133.4667 29° Northeast  Level FlightAware Approximate
01:41PM 68.3042 -133.4828 29° Northeast  Level Estimated
01:42PM 68.3042 -133.4828 29° Northeast  Level Estimated
01:43PM 68.3042 -133.4828 29° Northeast  Level Estimated
01:44PM 68.3042 -133.4828 29° Northeast  Level Estimated
01:45PM 68.3042 -133.4828 29° Northeast  Level Estimated
01:46PM 68.3042 -133.4828 29° Northeast  Level Estimated
01:47PM 68.3042 -133.4828 29° Northeast  Level Estimated
01:48PM 68.3042 -133.4828 29° Northeast  Level Estimated
01:49PM 68.3042 -133.4828 29° Northeast  Level Estimated
01:50PM 68.3042 -133.4828 29° Northeast  Level Estimated
01:51PM 68.3042 -133.4828 29° Northeast  Level Estimated
01:52PM 68.3042 -133.4828 29° Northeast  Level Estimated
01:53PM 68.3042 -133.4828 29° Northeast  Level Estimated